Time;durP1;ratioP1;P1;durP2;ratioP2;P2;SDS_P1;SDS_P2;PMS_P1;PMS_P2;Temp;Humidity;BMP_temperature;BMP_pressure;BME280_temperature;BME280_humidity;BME280_pressure;Samples;Min_cycle;Max_cycle;Signal;HPM_P1;HPM_P2
2022/07/08 00:00:06;;;;;;;2.80;2.47;;;14.80;99.90;;;;;;4987280;28;20184;-59
2022/07/08 00:02:32;;;;;;;2.50;2.20;;;14.80;99.90;;;;;;4989104;28;20179;-58
2022/07/08 00:04:57;;;;;;;2.47;2.27;;;14.70;99.90;;;;;;4979237;28;20464;-59
2022/07/08 00:07:23;;;;;;;2.40;2.20;;;14.70;99.90;;;;;;4988890;28;20183;-59
2022/07/08 00:09:48;;;;;;;2.47;2.13;;;14.70;99.90;;;;;;4988684;28;20254;-59
2022/07/08 00:12:14;;;;;;;3.10;2.30;;;14.70;99.90;;;;;;4989335;28;20251;-59
2022/07/08 00:14:40;;;;;;;2.43;2.23;;;14.60;99.90;;;;;;4985799;28;20201;-59
2022/07/08 00:17:05;;;;;;;2.30;2.10;;;14.60;99.90;;;;;;4988269;28;20184;-59
2022/07/08 00:19:31;;;;;;;2.10;2.00;;;14.60;99.90;;;;;;4988574;28;20186;-59
2022/07/08 00:21:57;;;;;;;3.20;2.10;;;14.60;99.90;;;;;;4987842;28;20658;-58
2022/07/08 00:24:23;;;;;;;14.00;2.30;;;14.60;99.90;;;;;;4986873;28;20633;-59
2022/07/08 00:26:48;;;;;;;3.57;2.10;;;14.50;99.90;;;;;;4987179;28;20417;-59
2022/07/08 00:29:14;;;;;;;4.00;2.70;;;14.60;99.90;;;;;;4986723;28;20184;-59
2022/07/08 00:31:40;;;;;;;2.33;2.13;;;14.60;99.90;;;;;;4987138;28;20181;-59
2022/07/08 00:34:06;;;;;;;5.33;2.93;;;14.50;99.90;;;;;;4985550;28;20610;-60
2022/07/08 00:36:31;;;;;;;2.77;2.07;;;14.50;99.90;;;;;;4987278;28;20178;-59
2022/07/08 00:38:57;;;;;;;2.00;1.90;;;14.50;99.90;;;;;;4987220;28;20181;-59
2022/07/08 00:41:23;;;;;;;2.07;1.97;;;14.50;99.90;;;;;;4989529;28;20437;-59
2022/07/08 00:43:49;;;;;;;2.90;2.20;;;14.50;99.90;;;;;;4988205;28;20797;-59
2022/07/08 00:46:15;;;;;;;3.73;2.20;;;14.50;99.90;;;;;;4987356;28;20424;-59
2022/07/08 00:48:42;;;;;;;2.80;2.60;;;14.40;99.90;;;;;;4985884;28;20212;-59
2022/07/08 00:51:17;;;;;;;2.40;2.20;;;14.40;99.90;;;;;;4986576;28;20428;-60
2022/07/08 00:53:48;;;;;;;2.50;2.30;;;14.40;99.90;;;;;;4988069;28;20446;-59
2022/07/08 00:56:15;;;;;;;3.03;2.43;;;14.40;99.90;;;;;;4987644;28;20964;-59
2022/07/08 00:58:41;;;;;;;2.40;2.20;;;14.40;99.90;;;;;;4990165;28;20941;-59
2022/07/08 01:01:07;;;;;;;2.77;2.57;;;14.40;99.90;;;;;;4985885;28;20436;-58
2022/07/08 01:03:32;;;;;;;2.73;2.47;;;14.40;99.90;;;;;;4984982;28;20467;-59
2022/07/08 01:05:58;;;;;;;2.97;2.63;;;14.40;99.90;;;;;;4985345;28;20527;-59
2022/07/08 01:08:24;;;;;;;2.70;2.50;;;14.40;99.90;;;;;;4988499;28;20177;-60
2022/07/08 01:10:51;;;;;;;2.47;2.27;;;14.30;99.90;;;;;;4986412;28;20173;-60
2022/07/08 01:13:18;;;;;;;2.93;2.70;;;14.30;99.90;;;;;;4987512;28;20837;-59
2022/07/08 01:15:45;;;;;;;3.03;2.40;;;14.30;99.90;;;;;;4982382;28;20436;-58
2022/07/08 01:18:25;;;;;;;3.77;2.60;;;14.30;99.90;;;;;;4986958;28;20421;-59
2022/07/08 01:20:51;;;;;;;4.13;2.60;;;14.20;99.90;;;;;;4985075;28;20435;-59
2022/07/08 01:23:17;;;;;;;2.60;2.40;;;14.20;99.90;;;;;;4989967;28;20459;-59
2022/07/08 01:25:44;;;;;;;3.03;2.40;;;14.20;99.90;;;;;;4986791;28;20188;-59
2022/07/08 01:28:10;;;;;;;3.07;2.77;;;14.20;99.90;;;;;;4988477;28;20181;-59
2022/07/08 01:30:35;;;;;;;3.90;2.80;;;14.20;99.90;;;;;;4987722;28;20536;-59
2022/07/08 01:33:02;;;;;;;4.07;2.33;;;14.20;99.90;;;;;;4984645;28;20523;-59
2022/07/08 01:35:27;;;;;;;2.90;2.60;;;14.10;99.90;;;;;;4986173;28;20682;-59
2022/07/08 01:37:53;;;;;;;2.40;2.20;;;14.10;99.90;;;;;;4983633;28;20559;-59
2022/07/08 01:40:19;;;;;;;2.80;2.60;;;14.00;99.90;;;;;;4987473;28;20231;-59
2022/07/08 01:42:44;;;;;;;2.43;2.13;;;14.00;99.90;;;;;;4987160;28;20212;-59
2022/07/08 01:45:10;;;;;;;2.90;2.33;;;14.00;99.90;;;;;;4984209;28;20561;-59
2022/07/08 01:47:36;;;;;;;2.30;2.20;;;13.90;99.90;;;;;;4982796;28;20197;-59
2022/07/08 01:50:02;;;;;;;2.40;2.20;;;13.90;99.90;;;;;;4983727;28;20201;-59
2022/07/08 01:52:27;;;;;;;4.93;2.63;;;13.90;99.90;;;;;;4986475;28;20265;-60
2022/07/08 01:54:53;;;;;;;4.73;2.50;;;13.80;99.90;;;;;;4983814;28;20460;-59
2022/07/08 01:57:21;;;;;;;3.10;1.87;;;13.70;99.90;;;;;;4987832;28;20181;-60
2022/07/08 01:59:47;;;;;;;3.00;2.10;;;13.70;99.90;;;;;;4981380;28;20187;-59
2022/07/08 02:02:15;;;;;;;5.20;2.60;;;13.60;99.90;;;;;;4982622;28;20428;-59
2022/07/08 02:04:41;;;;;;;3.67;2.10;;;13.60;99.90;;;;;;4980993;28;20980;-59
2022/07/08 02:07:07;;;;;;;2.67;2.47;;;13.50;99.90;;;;;;4984263;28;20440;-59
2022/07/08 02:09:33;;;;;;;2.93;2.30;;;13.50;99.90;;;;;;4981008;28;20512;-59
2022/07/08 02:14:44;;;;;;;2.67;2.47;;;13.40;99.90;;;;;;4979335;28;20479;-61
2022/07/08 02:17:09;;;;;;;3.47;2.43;;;13.40;99.90;;;;;;4982773;28;20472;-59
2022/07/08 02:19:35;;;;;;;3.50;2.90;;;13.40;99.90;;;;;;4984132;28;20487;-58
2022/07/08 02:22:01;;;;;;;2.67;2.47;;;13.40;99.90;;;;;;4984680;28;20647;-60
2022/07/08 02:24:27;;;;;;;3.90;2.93;;;13.40;99.90;;;;;;4982203;28;20215;-59
2022/07/08 02:26:53;;;;;;;4.50;2.90;;;13.30;99.90;;;;;;4986859;28;20428;-57
2022/07/08 02:29:18;;;;;;;3.80;2.63;;;13.30;99.90;;;;;;4985153;28;20260;-59
2022/07/08 02:31:44;;;;;;;3.77;2.73;;;13.30;99.90;;;;;;4984485;28;20203;-59
2022/07/08 02:34:10;;;;;;;2.90;2.70;;;13.40;99.90;;;;;;4983080;28;21980;-59
2022/07/08 02:36:36;;;;;;;5.30;2.90;;;13.40;99.90;;;;;;4982290;28;21085;-60
2022/07/08 02:39:02;;;;;;;3.20;3.00;;;13.40;99.90;;;;;;4983819;28;20177;-60
2022/07/08 02:41:27;;;;;;;3.70;3.40;;;13.40;99.90;;;;;;4981595;28;20182;-59
2022/07/08 02:43:53;;;;;;;4.93;3.60;;;13.50;99.90;;;;;;4981245;28;20470;-59
2022/07/08 02:46:18;;;;;;;3.03;2.80;;;13.50;99.90;;;;;;4981463;28;20631;-59
2022/07/08 02:48:44;;;;;;;4.77;3.10;;;13.50;99.90;;;;;;4982814;28;20208;-59
2022/07/08 02:51:10;;;;;;;3.00;2.80;;;13.50;99.90;;;;;;4981419;28;20185;-60
2022/07/08 02:53:35;;;;;;;3.07;2.87;;;13.50;99.90;;;;;;4978056;28;20204;-58
2022/07/08 02:56:01;;;;;;;3.90;3.50;;;13.60;99.90;;;;;;4982239;28;20188;-59
2022/07/08 02:58:27;;;;;;;9.53;3.90;;;13.60;99.90;;;;;;4982396;28;20170;-59
2022/07/08 03:00:53;;;;;;;7.40;4.00;;;13.60;99.90;;;;;;4983386;28;20963;-59
2022/07/08 03:03:18;;;;;;;8.80;4.40;;;13.60;99.90;;;;;;4981546;28;20220;-59
2022/07/08 03:05:44;;;;;;;14.33;4.30;;;13.50;99.90;;;;;;4982843;28;20193;-59
2022/07/08 03:08:10;;;;;;;16.97;4.30;;;13.50;99.90;;;;;;4984683;28;20181;-59
2022/07/08 03:10:35;;;;;;;6.87;4.10;;;13.60;99.90;;;;;;4984913;28;20181;-59
2022/07/08 03:13:01;;;;;;;8.27;4.10;;;13.60;99.90;;;;;;4981608;28;20244;-59
2022/07/08 03:15:26;;;;;;;6.97;3.47;;;13.50;99.90;;;;;;4981360;28;20189;-59
2022/07/08 03:17:52;;;;;;;7.43;3.73;;;13.50;99.90;;;;;;4981170;28;20181;-59
2022/07/08 03:20:18;;;;;;;15.63;5.70;;;13.50;99.90;;;;;;4986935;28;20543;-58
2022/07/08 03:22:45;;;;;;;6.57;3.97;;;13.50;99.90;;;;;;4984135;28;20225;-60
2022/07/08 03:25:10;;;;;;;8.53;4.50;;;13.50;99.90;;;;;;4983040;28;20979;-59
2022/07/08 03:27:36;;;;;;;13.50;4.63;;;13.50;99.90;;;;;;4984180;28;20424;-59
2022/07/08 03:30:03;;;;;;;8.53;4.30;;;13.50;98.60;;;;;;4982311;28;20681;-59
2022/07/08 03:32:29;;;;;;;12.40;5.00;;;13.50;98.70;;;;;;4984694;28;20276;-59
2022/07/08 03:34:55;;;;;;;9.30;4.80;;;13.50;98.10;;;;;;4987300;28;20535;-59
2022/07/08 03:37:20;;;;;;;9.40;4.63;;;13.40;97.50;;;;;;4991136;28;20730;-59
2022/07/08 03:39:46;;;;;;;8.10;4.23;;;13.50;98.20;;;;;;4992664;28;20654;-60
2022/07/08 03:42:12;;;;;;;14.07;4.87;;;13.50;98.80;;;;;;4988025;28;20183;-59
2022/07/08 03:44:37;;;;;;;9.80;5.00;;;13.50;99.00;;;;;;4985812;28;20277;-60
2022/07/08 03:47:03;;;;;;;11.50;5.30;;;13.50;98.80;;;;;;4987019;28;20257;-59
2022/07/08 03:49:29;;;;;;;17.53;5.10;;;13.40;97.50;;;;;;4991610;28;20184;-59
2022/07/08 03:51:54;;;;;;;8.73;4.73;;;13.40;97.00;;;;;;4990117;28;20236;-58
2022/07/08 03:54:20;;;;;;;11.23;5.97;;;13.40;96.90;;;;;;4981339;28;20240;-57
2022/07/08 03:56:46;;;;;;;12.83;4.77;;;13.30;96.40;;;;;;4983316;28;20801;-57
2022/07/08 03:59:11;;;;;;;14.27;4.60;;;13.30;96.40;;;;;;4987768;28;20311;-57
2022/07/08 04:01:37;;;;;;;8.23;4.63;;;13.30;96.20;;;;;;4983409;28;20544;-57
2022/07/08 04:04:02;;;;;;;15.80;4.63;;;13.20;96.00;;;;;;4982267;28;20220;-58
2022/07/08 04:06:28;;;;;;;7.37;4.60;;;13.20;96.60;;;;;;4976685;28;20184;-57
2022/07/08 04:08:54;;;;;;;13.60;4.80;;;13.20;97.10;;;;;;4982169;28;20761;-58
2022/07/08 04:11:20;;;;;;;15.30;4.77;;;13.10;96.90;;;;;;4986554;28;20196;-55
2022/07/08 04:13:45;;;;;;;5.23;4.10;;;13.10;96.30;;;;;;4979647;28;20842;-57
2022/07/08 04:16:14;;;;;;;7.13;4.40;;;13.10;95.60;;;;;;4975845;28;20190;-62
2022/07/08 04:18:41;;;;;;;6.57;4.60;;;13.10;94.90;;;;;;4978525;28;20666;-62
2022/07/08 04:21:08;;;;;;;7.00;4.17;;;13.10;94.10;;;;;;4979013;28;20428;-58
2022/07/08 04:23:34;;;;;;;9.07;3.87;;;13.10;93.40;;;;;;4978559;28;20495;-60
2022/07/08 04:26:00;;;;;;;8.00;3.63;;;13.10;93.30;;;;;;4982463;28;20942;-60
2022/07/08 04:28:25;;;;;;;13.33;4.23;;;13.10;93.30;;;;;;4984117;28;20463;-60
2022/07/08 04:30:51;;;;;;;8.23;3.60;;;13.10;92.60;;;;;;4982501;28;20669;-60
2022/07/08 04:33:17;;;;;;;10.63;4.30;;;13.10;91.70;;;;;;4975471;28;20667;-57
2022/07/08 04:35:43;;;;;;;14.70;4.83;;;13.10;91.90;;;;;;4979638;28;20184;-59
2022/07/08 04:38:08;;;;;;;11.53;4.07;;;13.20;92.00;;;;;;4979845;28;20863;-60
2022/07/08 04:40:34;;;;;;;12.17;3.90;;;13.20;91.40;;;;;;4978739;28;20177;-60
2022/07/08 04:43:00;;;;;;;8.17;4.27;;;13.20;90.90;;;;;;4983605;28;20181;-59
2022/07/08 04:45:25;;;;;;;7.77;4.23;;;13.30;91.00;;;;;;4982048;28;20169;-59
2022/07/08 04:47:52;;;;;;;6.90;4.40;;;13.30;91.50;;;;;;4981248;28;20507;-60
2022/07/08 04:50:17;;;;;;;10.70;4.10;;;13.30;91.30;;;;;;4983786;28;20169;-60
2022/07/08 04:52:43;;;;;;;7.30;4.30;;;13.30;90.00;;;;;;4979706;28;20425;-59
2022/07/08 04:55:27;;;;;;;15.00;4.40;;;13.30;90.00;;;;;;4986774;28;20663;-59
2022/07/08 04:57:54;;;;;;;11.33;4.20;;;13.40;90.20;;;;;;4976053;28;20231;-59
2022/07/08 05:00:19;;;;;;;6.97;4.47;;;13.40;90.20;;;;;;4987301;28;20429;-59
2022/07/08 05:02:46;;;;;;;13.60;4.23;;;13.50;90.40;;;;;;4982075;28;21007;-60
2022/07/08 05:05:12;;;;;;;14.40;5.17;;;13.50;90.40;;;;;;4985837;28;20457;-59
2022/07/08 05:07:38;;;;;;;22.77;4.60;;;13.60;90.30;;;;;;4983422;28;20169;-59
2022/07/08 05:10:04;;;;;;;14.03;4.00;;;13.60;90.00;;;;;;4984467;28;20497;-59
2022/07/08 05:12:29;;;;;;;8.57;5.00;;;13.70;90.00;;;;;;4980961;28;20188;-59
2022/07/08 05:14:55;;;;;;;9.67;4.80;;;13.70;90.50;;;;;;4987364;28;20197;-60
2022/07/08 05:17:20;;;;;;;8.93;4.63;;;13.70;90.80;;;;;;4985052;28;20181;-62
2022/07/08 05:19:46;;;;;;;5.27;3.73;;;13.90;91.40;;;;;;4984989;28;20681;-59
2022/07/08 05:22:11;;;;;;;6.13;3.77;;;13.90;91.00;;;;;;4982236;28;20180;-60
2022/07/08 05:24:37;;;;;;;9.30;4.13;;;14.00;90.40;;;;;;4979512;28;20205;-60
2022/07/08 05:27:03;;;;;;;11.80;3.70;;;14.00;89.80;;;;;;4983196;28;20181;-57
2022/07/08 05:29:29;;;;;;;6.03;3.93;;;14.10;88.60;;;;;;4980034;28;20206;-57
2022/07/08 05:31:54;;;;;;;9.13;4.23;;;14.10;88.60;;;;;;4979890;28;20444;-58
2022/07/08 05:34:21;;;;;;;7.17;3.80;;;14.20;87.40;;;;;;4978332;28;20201;-57
2022/07/08 05:36:47;;;;;;;7.80;3.77;;;14.20;85.90;;;;;;4988321;28;20181;-57
2022/07/08 05:39:13;;;;;;;9.00;4.13;;;14.20;85.90;;;;;;4983971;28;20519;-60
2022/07/08 05:41:39;;;;;;;10.10;4.27;;;14.20;83.50;;;;;;4983469;28;20531;-60
2022/07/08 05:44:04;;;;;;;6.93;3.73;;;14.30;82.40;;;;;;4983983;28;20220;-60
2022/07/08 05:46:30;;;;;;;4.57;3.97;;;14.30;84.90;;;;;;4987215;28;20181;-60
2022/07/08 05:48:56;;;;;;;4.77;4.10;;;14.30;85.80;;;;;;4981416;28;20177;-61
2022/07/08 05:51:21;;;;;;;12.07;4.63;;;14.40;85.40;;;;;;4980047;28;20709;-59
2022/07/08 05:53:47;;;;;;;9.73;4.30;;;14.40;85.60;;;;;;4986778;28;20275;-59
2022/07/08 05:56:13;;;;;;;8.63;3.93;;;14.50;85.90;;;;;;4984450;28;20193;-60
2022/07/08 05:58:39;;;;;;;16.07;4.60;;;14.50;85.10;;;;;;4981957;28;20181;-60
2022/07/08 06:01:04;;;;;;;8.67;4.07;;;14.60;83.50;;;;;;4979992;28;20863;-60
2022/07/08 06:03:30;;;;;;;8.73;3.50;;;14.70;82.70;;;;;;4985426;28;20236;-60
2022/07/08 06:05:56;;;;;;;12.50;4.07;;;14.70;82.70;;;;;;4980068;28;20177;-60
2022/07/08 06:08:21;;;;;;;12.60;4.30;;;14.80;82.30;;;;;;4985564;28;20200;-59
2022/07/08 06:10:47;;;;;;;7.53;3.93;;;14.80;82.20;;;;;;4980260;28;20181;-59
2022/07/08 06:13:13;;;;;;;8.07;3.70;;;14.90;80.70;;;;;;4983115;28;20650;-60
2022/07/08 06:15:38;;;;;;;10.33;4.00;;;14.90;80.50;;;;;;4983318;28;20315;-60
2022/07/08 06:18:04;;;;;;;7.43;3.40;;;15.00;79.90;;;;;;4982935;28;20264;-59
2022/07/08 06:20:30;;;;;;;9.30;3.90;;;15.00;77.80;;;;;;4978851;28;20177;-60
2022/07/08 06:22:55;;;;;;;11.03;4.10;;;15.00;77.30;;;;;;4987405;28;20205;-59
2022/07/08 06:25:21;;;;;;;6.90;3.93;;;15.00;77.60;;;;;;4982538;28;20193;-60
2022/07/08 06:27:47;;;;;;;7.20;3.57;;;15.10;77.40;;;;;;4981037;28;20184;-60
2022/07/08 06:30:13;;;;;;;8.60;3.87;;;15.10;76.10;;;;;;4974946;28;20178;-59
2022/07/08 06:32:39;;;;;;;6.33;3.60;;;15.10;74.00;;;;;;4983356;28;20770;-60
2022/07/08 06:35:05;;;;;;;12.93;4.33;;;15.10;74.40;;;;;;4979653;28;20461;-60
2022/07/08 06:37:30;;;;;;;8.40;3.83;;;15.20;76.70;;;;;;4980821;28;20189;-61
2022/07/08 06:39:56;;;;;;;6.47;3.20;;;15.30;77.90;;;;;;4973343;28;20448;-60
2022/07/08 06:42:22;;;;;;;4.13;3.27;;;15.40;76.60;;;;;;4978984;28;20204;-60
2022/07/08 06:44:47;;;;;;;6.50;3.70;;;15.50;77.00;;;;;;4979472;28;20240;-65
2022/07/08 06:47:13;;;;;;;12.50;4.30;;;15.60;76.00;;;;;;4980774;28;20199;-59
2022/07/08 06:49:39;;;;;;;7.20;4.37;;;15.70;75.40;;;;;;4977433;28;20182;-59
2022/07/08 06:52:05;;;;;;;10.13;3.80;;;15.70;77.10;;;;;;4982361;28;20653;-59
2022/07/08 06:54:37;;;;;;;7.63;4.20;;;15.80;74.90;;;;;;4972749;28;20197;-58
2022/07/08 06:57:04;;;;;;;6.07;3.60;;;15.90;75.50;;;;;;4975720;28;20492;-59
2022/07/08 06:59:30;;;;;;;7.93;3.73;;;16.00;71.80;;;;;;4969724;28;20440;-58
2022/07/08 07:01:56;;;;;;;7.77;3.20;;;16.10;71.50;;;;;;4974939;28;20531;-60
2022/07/08 07:04:21;;;;;;;9.30;3.60;;;16.20;71.80;;;;;;4971387;28;20497;-58
2022/07/08 07:06:47;;;;;;;4.10;3.10;;;16.20;71.50;;;;;;4980776;28;20186;-58
2022/07/08 07:09:14;;;;;;;8.07;3.70;;;16.30;69.50;;;;;;4982630;28;20249;-58
2022/07/08 07:11:40;;;;;;;4.93;3.30;;;16.40;68.20;;;;;;4985012;28;20564;-58
2022/07/08 07:14:06;;;;;;;6.53;3.60;;;16.40;68.00;;;;;;4988047;28;21066;-59
2022/07/08 07:16:33;;;;;;;17.53;3.67;;;16.60;68.90;;;;;;4983747;28;20188;-58
2022/07/08 07:18:58;;;;;;;4.93;3.27;;;16.60;67.10;;;;;;4987657;28;20438;-60
2022/07/08 07:21:24;;;;;;;10.40;3.20;;;16.70;67.00;;;;;;4982393;28;20856;-62
2022/07/08 07:23:49;;;;;;;6.83;3.10;;;16.80;68.10;;;;;;4981828;28;20247;-62
2022/07/08 07:26:15;;;;;;;12.37;3.53;;;16.80;66.00;;;;;;4983273;28;20178;-61
2022/07/08 07:28:41;;;;;;;5.93;3.73;;;16.90;67.70;;;;;;4988374;28;20171;-60
2022/07/08 07:31:07;;;;;;;9.80;3.60;;;17.00;65.10;;;;;;4985999;28;20189;-64
2022/07/08 07:33:32;;;;;;;8.90;3.43;;;17.00;64.80;;;;;;4987098;28;20270;-60
2022/07/08 07:35:58;;;;;;;6.40;3.20;;;17.00;65.00;;;;;;4979913;28;20209;-60
2022/07/08 07:38:24;;;;;;;10.47;3.80;;;17.10;64.20;;;;;;4983923;28;20189;-59
2022/07/08 07:40:50;;;;;;;10.53;3.30;;;17.20;65.20;;;;;;4983968;28;20439;-60
2022/07/08 07:43:16;;;;;;;11.07;4.17;;;17.20;64.00;;;;;;4990143;28;20213;-63
2022/07/08 07:45:42;;;;;;;8.27;3.60;;;17.30;64.30;;;;;;4980652;28;20202;-59
2022/07/08 07:48:07;;;;;;;5.40;3.20;;;17.30;65.30;;;;;;4981288;28;20655;-59
2022/07/08 07:50:33;;;;;;;6.47;3.07;;;17.50;64.70;;;;;;4985318;28;20212;-59
2022/07/08 07:52:58;;;;;;;5.97;2.77;;;17.60;61.80;;;;;;4982620;28;20181;-59
2022/07/08 07:55:24;;;;;;;3.90;3.00;;;17.70;61.60;;;;;;4977219;28;20181;-61
2022/07/08 07:57:50;;;;;;;5.57;2.83;;;17.60;59.80;;;;;;4983904;28;20188;-59
2022/07/08 08:00:16;;;;;;;10.17;3.07;;;17.60;61.20;;;;;;4983759;28;20178;-59
2022/07/08 08:02:42;;;;;;;4.60;3.30;;;17.70;61.40;;;;;;4976459;28;20174;-58
2022/07/08 08:05:09;;;;;;;6.27;3.37;;;17.80;62.00;;;;;;4978454;28;20467;-56
2022/07/08 08:07:39;;;;;;;14.63;3.77;;;17.90;61.10;;;;;;4984152;28;20432;-57
2022/07/08 08:10:05;;;;;;;6.60;3.10;;;18.00;60.10;;;;;;4973722;28;20429;-61
2022/07/08 08:12:31;;;;;;;7.40;3.10;;;18.00;59.80;;;;;;4981707;28;20433;-59
2022/07/08 08:14:57;;;;;;;6.03;3.00;;;17.90;59.50;;;;;;4969762;28;20451;-59
2022/07/08 08:17:22;;;;;;;5.13;2.13;;;17.70;58.80;;;;;;4980003;28;20181;-59
2022/07/08 08:19:48;;;;;;;6.57;2.13;;;17.60;59.70;;;;;;4975801;28;20185;-59
2022/07/08 08:22:14;;;;;;;4.90;2.00;;;17.50;59.90;;;;;;4985489;28;20683;-60
2022/07/08 08:24:39;;;;;;;2.63;2.17;;;17.60;61.10;;;;;;4982269;28;20204;-60
2022/07/08 08:27:05;;;;;;;4.73;2.70;;;17.60;61.20;;;;;;4986986;28;20248;-60
2022/07/08 08:29:31;;;;;;;7.63;2.47;;;17.80;60.30;;;;;;4983787;28;20221;-60
2022/07/08 08:31:56;;;;;;;4.80;2.40;;;17.90;60.70;;;;;;4984880;28;20197;-60
2022/07/08 08:34:22;;;;;;;6.53;2.70;;;18.10;60.80;;;;;;4983564;28;20201;-60
2022/07/08 08:36:48;;;;;;;3.30;2.20;;;18.20;60.30;;;;;;4981804;28;20243;-60
2022/07/08 08:39:13;;;;;;;5.17;2.37;;;18.40;60.10;;;;;;4981457;28;20199;-59
2022/07/08 08:41:41;;;;;;;4.00;2.20;;;18.50;60.00;;;;;;4988622;28;20181;-61
2022/07/08 08:44:06;;;;;;;3.97;2.40;;;18.60;60.30;;;;;;4979364;28;20765;-61
2022/07/08 08:46:32;;;;;;;8.30;2.47;;;18.70;57.70;;;;;;4977066;28;20464;-59
2022/07/08 08:49:00;;;;;;;4.37;1.90;;;18.80;58.40;;;;;;4983290;28;20208;-60
2022/07/08 08:51:29;;;;;;;3.93;2.17;;;18.80;58.00;;;;;;4972745;28;20429;-63
2022/07/08 08:53:58;;;;;;;8.40;2.50;;;18.90;57.80;;;;;;4975549;28;20459;-61
2022/07/08 08:56:25;;;;;;;4.60;2.33;;;19.10;56.30;;;;;;4978751;28;20979;-60
2022/07/08 08:58:53;;;;;;;4.30;2.40;;;19.10;55.40;;;;;;4983288;28;20457;-60
2022/07/08 09:01:19;;;;;;;6.47;2.23;;;19.10;57.50;;;;;;4986992;28;20433;-60
2022/07/08 09:03:46;;;;;;;4.40;2.00;;;19.10;57.90;;;;;;4984038;28;20472;-59
2022/07/08 09:06:12;;;;;;;4.83;2.20;;;19.20;55.90;;;;;;4981090;28;20432;-60
2022/07/08 09:08:38;;;;;;;6.10;2.20;;;19.30;56.20;;;;;;4984802;28;20791;-60
2022/07/08 09:11:04;;;;;;;6.13;2.80;;;19.30;55.70;;;;;;4982942;28;20181;-60
2022/07/08 09:13:30;;;;;;;3.43;2.33;;;19.20;54.80;;;;;;4986008;28;20448;-60
2022/07/08 09:15:58;;;;;;;4.53;2.50;;;19.00;55.00;;;;;;4986496;28;20173;-61
2022/07/08 09:18:41;;;;;;;9.47;2.60;;;19.10;56.50;;;;;;4980778;28;20181;-60
2022/07/08 09:21:08;;;;;;;6.63;3.37;;;19.20;56.20;;;;;;4986811;28;20440;-60
2022/07/08 09:23:36;;;;;;;6.17;3.03;;;19.20;55.10;;;;;;4987085;28;20472;-59
2022/07/08 09:26:10;;;;;;;6.80;3.20;;;19.20;54.00;;;;;;4982799;28;20583;-59
2022/07/08 09:28:43;;;;;;;6.40;3.70;;;19.10;53.10;;;;;;4982558;28;20831;-59
2022/07/08 09:31:12;;;;;;;4.00;2.47;;;19.20;54.90;;;;;;4986380;28;20455;-60
2022/07/08 09:33:38;;;;;;;6.80;3.07;;;19.30;56.00;;;;;;4985629;28;20463;-60
2022/07/08 09:36:05;;;;;;;5.70;3.33;;;19.50;55.50;;;;;;4982252;28;20519;-59
2022/07/08 09:38:35;;;;;;;8.70;2.63;;;19.70;56.10;;;;;;4982166;28;20455;-61
2022/07/08 09:41:09;;;;;;;6.60;2.70;;;19.90;57.30;;;;;;4985777;28;20474;-59
2022/07/08 09:43:47;;;;;;;10.37;3.10;;;20.10;56.90;;;;;;4986899;28;21361;-61
2022/07/08 09:46:12;;;;;;;4.63;2.30;;;20.40;54.50;;;;;;4985878;28;20531;-60
2022/07/08 09:48:38;;;;;;;7.70;2.80;;;20.30;52.30;;;;;;4981902;28;20435;-59
2022/07/08 09:51:07;;;;;;;5.90;2.47;;;20.30;53.50;;;;;;4977564;28;20181;-61
2022/07/08 09:53:35;;;;;;;5.33;1.90;;;20.20;52.10;;;;;;4980868;28;20215;-60
2022/07/08 09:56:01;;;;;;;6.03;2.20;;;20.20;53.10;;;;;;4979813;28;20494;-59
2022/07/08 09:58:29;;;;;;;5.63;2.80;;;20.40;54.00;;;;;;4978950;28;21025;-58
2022/07/08 10:00:57;;;;;;;9.17;3.00;;;20.50;55.10;;;;;;4977258;28;20440;-61
2022/07/08 10:03:24;;;;;;;8.40;2.80;;;20.70;53.20;;;;;;4979903;28;21096;-60
2022/07/08 10:05:50;;;;;;;5.73;2.77;;;20.80;53.00;;;;;;4976150;28;20440;-60
2022/07/08 10:08:17;;;;;;;10.40;2.70;;;20.80;50.20;;;;;;4980304;28;20936;-62
2022/07/08 10:10:46;;;;;;;6.90;2.57;;;20.50;49.80;;;;;;4981310;28;20428;-59
2022/07/08 10:13:14;;;;;;;6.20;2.23;;;20.10;50.70;;;;;;4975116;28;20506;-57
2022/07/08 10:15:40;;;;;;;5.53;2.53;;;19.70;51.10;;;;;;4974302;28;20522;-60
2022/07/08 10:18:16;;;;;;;7.30;2.30;;;19.70;52.00;;;;;;4981562;28;20436;-59
2022/07/08 10:20:46;;;;;;;5.17;2.90;;;19.70;51.40;;;;;;4978257;28;20463;-58
2022/07/08 10:23:19;;;;;;;5.27;1.90;;;19.90;51.40;;;;;;4979883;28;21093;-60
2022/07/08 10:25:46;;;;;;;8.17;2.60;;;20.00;50.60;;;;;;4980982;28;20444;-60
2022/07/08 10:28:11;;;;;;;5.80;2.20;;;20.20;50.50;;;;;;4983811;28;20437;-58
2022/07/08 10:30:51;;;;;;;4.17;1.93;;;20.30;50.90;;;;;;4987804;28;20419;-60
2022/07/08 10:33:25;;;;;;;5.70;2.20;;;20.50;49.10;;;;;;4977555;28;20196;-59
2022/07/08 10:36:04;;;;;;;7.27;2.20;;;20.60;48.20;;;;;;4982077;28;20531;-57
2022/07/08 10:38:35;;;;;;;6.07;2.07;;;20.70;47.90;;;;;;4981460;28;20435;-58
2022/07/08 10:41:11;;;;;;;5.43;2.20;;;20.70;48.40;;;;;;4983955;28;20424;-59
2022/07/08 10:43:48;;;;;;;6.37;2.13;;;20.80;49.30;;;;;;4984619;28;20518;-59
2022/07/08 10:46:18;;;;;;;5.20;2.33;;;20.90;48.00;;;;;;4985799;28;20884;-59
2022/07/08 10:48:52;;;;;;;3.93;2.93;;;21.00;48.70;;;;;;4980939;28;20447;-55
2022/07/08 10:51:17;;;;;;;6.67;2.00;;;21.10;49.70;;;;;;4985832;28;20463;-56
2022/07/08 10:53:53;;;;;;;6.40;2.13;;;21.30;49.10;;;;;;4980657;28;20705;-56
2022/07/08 10:56:48;;;;;;;6.00;2.70;;;21.40;48.70;;;;;;4978269;28;20440;-55
2022/07/08 10:59:18;;;;;;;7.57;2.10;;;21.50;47.80;;;;;;4982443;28;20912;-55
2022/07/08 11:01:55;;;;;;;7.20;2.40;;;21.60;48.30;;;;;;4974629;28;20452;-60
2022/07/08 11:04:27;;;;;;;3.53;1.93;;;21.80;47.50;;;;;;4986593;28;20464;-58
2022/07/08 11:06:55;;;;;;;11.00;6.43;;;21.80;48.30;;;;;;4974256;28;20485;-59
2022/07/08 11:09:23;;;;;;;5.30;2.10;;;21.90;49.20;;;;;;4974788;28;20519;-55
2022/07/08 11:11:50;;;;;;;5.27;2.07;;;22.10;49.20;;;;;;4982080;28;20594;-55
2022/07/08 11:14:15;;;;;;;6.37;1.80;;;22.30;49.20;;;;;;4974773;28;20460;-57
2022/07/08 11:16:41;;;;;;;4.87;1.80;;;22.60;48.50;;;;;;4979251;28;20444;-57
2022/07/08 11:19:07;;;;;;;6.37;2.43;;;22.70;46.90;;;;;;4980038;28;20180;-59
2022/07/08 11:21:33;;;;;;;4.03;2.13;;;22.80;48.00;;;;;;4977065;28;20945;-57
2022/07/08 11:23:59;;;;;;;3.10;1.97;;;22.90;47.30;;;;;;4981717;28;20264;-56
2022/07/08 11:26:25;;;;;;;2.90;1.90;;;23.00;44.50;;;;;;4979298;28;20436;-57
2022/07/08 11:28:51;;;;;;;2.23;1.70;;;22.90;43.00;;;;;;4979977;28;20181;-56
2022/07/08 11:31:34;;;;;;;3.83;1.93;;;22.70;41.50;;;;;;4978430;28;20264;-55
2022/07/08 11:34:00;;;;;;;2.60;1.37;;;22.80;43.70;;;;;;4974659;28;20201;-58
2022/07/08 11:36:25;;;;;;;5.33;2.10;;;22.90;43.90;;;;;;4973982;28;20817;-59
2022/07/08 11:38:52;;;;;;;4.17;1.90;;;23.00;43.50;;;;;;4976746;28;20202;-59
2022/07/08 11:41:20;;;;;;;5.10;1.70;;;23.20;43.80;;;;;;4979161;28;20443;-60
2022/07/08 11:43:47;;;;;;;7.53;1.97;;;23.30;43.00;;;;;;4967950;28;20217;-59
2022/07/08 11:46:21;;;;;;;5.00;2.03;;;23.20;43.30;;;;;;4976169;28;20436;-59
2022/07/08 11:48:47;;;;;;;1.70;1.60;;;23.10;42.40;;;;;;4978175;28;20428;-61
2022/07/08 11:51:17;;;;;;;4.00;2.03;;;23.10;43.40;;;;;;4983110;28;20439;-60
2022/07/08 11:53:44;;;;;;;3.47;1.90;;;23.10;44.90;;;;;;4982951;28;21078;-61
2022/07/08 11:56:09;;;;;;;7.00;2.00;;;23.20;44.40;;;;;;4979889;28;20807;-60
2022/07/08 11:58:35;;;;;;;3.97;1.90;;;23.30;44.00;;;;;;4974376;28;20437;-61
2022/07/08 12:01:02;;;;;;;3.73;1.80;;;23.40;44.10;;;;;;4982701;28;20752;-62
2022/07/08 12:03:28;;;;;;;7.03;1.80;;;23.50;44.10;;;;;;4980348;28;20212;-60
2022/07/08 12:05:53;;;;;;;3.30;2.43;;;23.60;44.80;;;;;;4972312;28;20440;-61
2022/07/08 12:08:19;;;;;;;2.87;1.90;;;23.80;45.90;;;;;;4973165;28;20812;-61
2022/07/08 12:10:45;;;;;;;3.53;2.00;;;24.00;43.60;;;;;;4987903;28;20192;-61
2022/07/08 12:13:11;;;;;;;3.70;2.10;;;24.10;43.50;;;;;;4974365;28;20529;-63
2022/07/08 12:15:37;;;;;;;5.80;2.10;;;24.10;43.00;;;;;;4989369;28;21022;-64
2022/07/08 12:18:04;;;;;;;5.80;2.20;;;24.20;44.80;;;;;;4978059;28;20185;-57
2022/07/08 12:20:35;;;;;;;9.53;2.23;;;24.30;44.60;;;;;;4978578;28;20554;-58
2022/07/08 12:23:04;;;;;;;3.63;2.10;;;24.50;44.10;;;;;;4975149;28;20443;-58
2022/07/08 12:25:47;;;;;;;3.20;1.70;;;24.70;44.50;;;;;;4977605;28;20468;-57
2022/07/08 12:28:12;;;;;;;5.80;2.30;;;24.70;44.50;;;;;;4982056;28;20427;-57
2022/07/08 12:30:39;;;;;;;7.93;2.17;;;24.80;44.30;;;;;;4984342;28;20941;-59
2022/07/08 12:33:05;;;;;;;4.97;2.10;;;25.00;44.20;;;;;;4973387;28;20182;-56
2022/07/08 12:35:35;;;;;;;2.30;1.83;;;25.10;43.80;;;;;;4970172;28;20452;-57
2022/07/08 12:38:10;;;;;;;5.70;1.90;;;25.20;42.60;;;;;;4978800;28;20444;-61
2022/07/08 12:40:43;;;;;;;6.80;2.40;;;25.20;42.40;;;;;;4981553;28;20924;-54
2022/07/08 12:43:11;;;;;;;5.93;2.40;;;25.30;41.80;;;;;;4978009;28;20460;-54
2022/07/08 12:45:37;;;;;;;4.03;1.80;;;25.30;41.60;;;;;;4973565;28;20988;-56